createdAt,value
2022-07-25T00:01:48.212Z,-26.5
2022-07-25T00:03:50.047Z,-26.4
2022-07-25T00:09:54.855Z,-26.1
2022-07-25T00:11:56.049Z,-26.3
2022-07-25T00:13:57.179Z,-26.2
2022-07-25T00:17:59.455Z,-26.3
2022-07-25T00:20:01.136Z,-26.3
2022-07-25T00:24:04.269Z,-26.4
2022-07-25T00:26:05.472Z,-26.3
2022-07-25T00:28:07.037Z,-26
2022-07-25T00:30:07.911Z,-26.3
2022-07-25T00:36:12.243Z,-26.1
2022-07-25T00:38:13.310Z,-26.3
2022-07-25T00:40:14.741Z,-26.2
2022-07-25T00:42:16.420Z,-26.3
2022-07-25T00:44:18.124Z,-26.4
2022-07-25T00:46:19.305Z,-26.3
2022-07-25T00:48:20.795Z,-26.2
2022-07-25T00:50:21.888Z,-26.4
2022-07-25T00:52:22.764Z,-26.2
2022-07-25T00:54:23.722Z,-26.6
2022-07-25T00:56:25.399Z,-26.5
2022-07-25T00:58:27.259Z,-26.2
2022-07-25T01:00:28.927Z,-26
2022-07-25T01:02:29.936Z,-26.2
2022-07-25T01:04:31.350Z,-26.4
2022-07-25T01:06:32.255Z,-26.2
2022-07-25T01:08:33.608Z,-26.3
2022-07-25T01:10:35.342Z,-26.2
2022-07-25T01:12:36.247Z,-26.2
2022-07-25T01:14:37.159Z,-26.2
2022-07-25T01:16:38.541Z,-26.3
2022-07-25T01:18:39.738Z,-26.3
2022-07-25T01:22:42.642Z,-26.3
2022-07-25T01:24:44.042Z,-26.2
2022-07-25T01:26:45.131Z,-26.2
2022-07-25T01:28:46.197Z,-26.5
2022-07-25T01:30:48.023Z,-26.3
2022-07-25T01:34:50.690Z,-26.1
2022-07-25T01:36:51.854Z,-26.1
2022-07-25T01:38:54.097Z,-26.4
2022-07-25T01:40:55.243Z,-26.2
2022-07-25T01:42:56.962Z,-26.4
2022-07-25T01:44:58.207Z,-26.2
2022-07-25T01:46:59.709Z,-26.3
2022-07-25T01:49:00.818Z,-26.3
2022-07-25T01:51:02.613Z,-26.2
2022-07-25T01:53:03.896Z,-26.6
2022-07-25T01:55:05.140Z,-26.4
2022-07-25T01:57:06.708Z,-26.1
2022-07-25T01:59:08.011Z,-26.1
2022-07-25T02:01:09.337Z,-26.1
2022-07-25T02:03:10.395Z,-26.5
2022-07-25T02:05:12.113Z,-26.1
2022-07-25T02:07:13.341Z,-26.5
2022-07-25T02:11:15.923Z,-26.3
2022-07-25T02:13:16.852Z,-26.3
2022-07-25T02:15:18.526Z,-26.4
2022-07-25T02:17:19.823Z,-26.3
2022-07-25T02:21:22.462Z,-26.3
2022-07-25T02:23:23.871Z,-26.3
2022-07-25T02:25:25.475Z,-26.2
2022-07-25T02:27:27.168Z,-26.6
2022-07-25T02:33:31.064Z,-26
2022-07-25T02:35:32.868Z,-26.3
2022-07-25T02:37:34.120Z,-26.2
2022-07-25T02:39:35.674Z,-26.5
2022-07-25T02:41:37.161Z,-26.3
2022-07-25T02:43:38.720Z,-26.4
2022-07-25T02:47:41.568Z,-26.3
2022-07-25T02:49:42.986Z,-26.2
2022-07-25T02:51:44.341Z,-26.3
2022-07-25T02:53:56.950Z,-26.3
2022-07-25T02:59:49.225Z,-26.5
2022-07-25T03:01:51.021Z,-26.5
2022-07-25T03:03:52.008Z,-26.6
2022-07-25T03:05:53.369Z,-26.4
2022-07-25T03:07:54.727Z,-26.3
2022-07-25T03:09:55.921Z,-26.3
2022-07-25T03:11:57.529Z,-26.3
2022-07-25T03:13:58.434Z,-26.5
2022-07-25T03:15:59.578Z,-26.2
2022-07-25T03:18:01.037Z,-26.5
2022-07-25T03:20:02.782Z,-26.5
2022-07-25T03:22:04.507Z,-26.3
2022-07-25T03:24:05.971Z,-26.5
2022-07-25T03:26:07.398Z,-26.3
2022-07-25T03:28:08.970Z,-26.2
2022-07-25T03:30:10.281Z,-26.3
2022-07-25T03:32:11.374Z,-26.5
2022-07-25T03:34:12.691Z,-26.2
2022-07-25T03:36:14.539Z,-26.1
2022-07-25T03:38:15.928Z,-26.4
2022-07-25T03:40:17.537Z,-26.2
2022-07-25T03:42:21.345Z,-26.2
2022-07-25T03:46:21.873Z,-26.1
2022-07-25T03:48:22.781Z,-26.7
2022-07-25T03:50:24.194Z,-26.5
2022-07-25T03:52:25.988Z,-26.6
2022-07-25T03:54:26.978Z,-26.3
2022-07-25T03:58:29.655Z,-26.5
2022-07-25T04:00:31.253Z,-26.5
2022-07-25T04:02:32.882Z,-26.4
2022-07-25T04:04:34.052Z,-26.1
2022-07-25T04:06:35.328Z,-26.3
2022-07-25T04:08:36.645Z,-26.7
2022-07-25T04:12:39.703Z,-26.3
2022-07-25T04:14:40.905Z,-26.1
2022-07-25T04:16:42.731Z,-26
2022-07-25T04:18:43.681Z,-26.1
2022-07-25T04:20:45.194Z,-26.3
2022-07-25T04:22:47.286Z,-26.3
2022-07-25T04:24:48.118Z,-26.5
2022-07-25T04:26:49.939Z,-26.2
2022-07-25T04:28:51.428Z,-26.1
2022-07-25T04:30:52.994Z,-26.5
2022-07-25T04:34:56.012Z,-26.3
2022-07-25T04:36:57.033Z,-26.4
2022-07-25T04:38:58.455Z,-26.1
2022-07-25T04:40:59.882Z,-26.2
2022-07-25T04:43:01.357Z,-26.5
2022-07-25T04:45:02.430Z,-26.4
2022-07-25T04:47:04.045Z,-26.5
2022-07-25T04:49:05.350Z,-26.5
2022-07-25T04:51:06.813Z,-25.2
2022-07-25T04:57:10.386Z,-23
2022-07-25T04:59:11.730Z,-21
2022-07-25T05:01:12.599Z,-18.5
2022-07-25T05:05:18.444Z,-3.7
2022-07-25T05:07:16.389Z,-13.8
2022-07-25T05:09:17.580Z,-11.3
2022-07-25T05:11:18.511Z,-8.8
2022-07-25T05:15:21.013Z,-5.7
2022-07-25T05:17:22.635Z,3.4
2022-07-25T05:19:23.757Z,-0.7
2022-07-25T05:23:26.942Z,4.6
2022-07-25T05:25:28.669Z,8.8
2022-07-25T05:27:30.146Z,16.7
2022-07-25T05:29:31.500Z,18.79
2022-07-25T05:31:33.044Z,22
2022-07-25T05:33:33.908Z,24.9
2022-07-25T05:37:37.376Z,32.59
2022-07-25T05:39:38.612Z,36
2022-07-25T05:41:39.896Z,39.7
2022-07-25T05:43:41.221Z,75.9
2022-07-25T05:45:42.373Z,75.1
2022-07-25T05:47:43.603Z,73.8
2022-07-25T05:49:45.378Z,73.3
2022-07-25T05:51:46.467Z,73
2022-07-25T05:53:47.639Z,72.1
2022-07-25T05:55:48.963Z,71.1
2022-07-25T05:57:50.294Z,70.3
2022-07-25T05:59:51.782Z,69.8
2022-07-25T06:03:54.008Z,68
2022-07-25T06:05:55.294Z,67
2022-07-25T06:07:56.086Z,65.69
2022-07-25T06:09:57.033Z,64.6
2022-07-25T06:12:00.753Z,63.2
2022-07-25T06:13:59.729Z,62.8
2022-07-25T06:16:00.589Z,60.8
2022-07-25T06:18:01.328Z,59.8
2022-07-25T06:20:02.815Z,57.8
2022-07-25T06:22:04.374Z,56.9
2022-07-25T06:24:05.543Z,55.5
2022-07-25T06:26:06.188Z,54.5
2022-07-25T06:28:07.181Z,52.6
2022-07-25T06:30:18.569Z,51.1
2022-07-25T06:32:53.588Z,49.4
2022-07-25T06:34:54.677Z,47.9
2022-07-25T06:36:55.501Z,45.7
2022-07-25T06:40:57.472Z,43.2
2022-07-25T06:42:59.158Z,42.1
2022-07-25T06:45:00.817Z,41.3
2022-07-25T06:47:02.495Z,39.3
2022-07-25T06:49:04.205Z,37
2022-07-25T06:51:05.530Z,35.5
2022-07-25T06:53:07.036Z,33.9
2022-07-25T06:55:08.668Z,33.59
2022-07-25T06:57:09.933Z,31.7
2022-07-25T07:01:12.539Z,28.9
2022-07-25T07:03:13.623Z,27.3
2022-07-25T07:05:14.821Z,26
2022-07-25T07:07:15.603Z,25.3
2022-07-25T07:09:16.899Z,22.2
2022-07-25T07:15:19.933Z,20.5
2022-07-25T07:17:20.829Z,19.1
2022-07-25T07:19:22.416Z,16.79
2022-07-25T07:21:23.763Z,16.9
2022-07-25T07:23:25.458Z,15.4
2022-07-25T07:25:26.888Z,14.5
2022-07-25T07:29:28.685Z,12.8
2022-07-25T07:31:29.877Z,11.9
2022-07-25T07:33:31.192Z,10.5
2022-07-25T07:35:34.915Z,10.1
2022-07-25T07:37:37.683Z,10.1
2022-07-25T07:39:34.820Z,-26.2
2022-07-25T07:41:36.552Z,-26.2
2022-07-25T07:43:37.720Z,-26.3
2022-07-25T07:45:38.757Z,-26.1
2022-07-25T07:47:39.680Z,-26.1
2022-07-25T07:49:40.832Z,-26.2
2022-07-25T07:51:41.658Z,-26.2
2022-07-25T07:53:42.995Z,-26.4
2022-07-25T07:55:43.803Z,-26
2022-07-25T07:57:44.574Z,-26.1
2022-07-25T07:59:45.413Z,-26.1
2022-07-25T08:01:46.534Z,-26.1
2022-07-25T08:03:47.530Z,-26.1
2022-07-25T08:05:49.055Z,-26.1
2022-07-25T08:07:50.641Z,-26.3
2022-07-25T08:09:51.996Z,-26.2
2022-07-25T08:11:53.141Z,-26.3
2022-07-25T08:13:54.206Z,-26.3
2022-07-25T08:15:55.853Z,-26.2
2022-07-25T08:17:57.078Z,-26.3
2022-07-25T08:20:09.356Z,-26
2022-07-25T08:21:59.123Z,-26.1
2022-07-25T08:24:00.323Z,-26.6
2022-07-25T08:26:01.269Z,-26.2
2022-07-25T08:28:02.752Z,-26.1
2022-07-25T08:30:04.322Z,-25.9
2022-07-25T08:32:05.818Z,-26.3
2022-07-25T08:34:07.392Z,-26.1
2022-07-25T08:36:08.611Z,-26
2022-07-25T08:38:09.528Z,-26.1
2022-07-25T08:40:11.164Z,-26.1
2022-07-25T08:42:11.941Z,-26.2
2022-07-25T08:44:13.000Z,-26.2
2022-07-25T08:46:14.486Z,-26.3
2022-07-25T08:48:15.606Z,-25.9
2022-07-25T08:50:17.059Z,-26.1
2022-07-25T08:52:18.392Z,-26.2
2022-07-25T08:54:19.141Z,-26
2022-07-25T08:56:21.431Z,-26
2022-07-25T08:58:21.657Z,-26
2022-07-25T09:02:24.145Z,-26
2022-07-25T09:04:25.018Z,-26.1
2022-07-25T09:06:25.957Z,-26
2022-07-25T09:08:26.965Z,-26
2022-07-25T09:10:28.499Z,-26
2022-07-25T09:12:29.457Z,-26
2022-07-25T09:18:33.724Z,-26.2
2022-07-25T09:20:34.528Z,-26.1
2022-07-25T09:22:35.718Z,-26.1
2022-07-25T09:24:36.826Z,-26.3
2022-07-25T09:26:38.002Z,-26.2
2022-07-25T09:28:38.998Z,-26.2
2022-07-25T09:34:43.478Z,-26.1
2022-07-25T09:36:44.242Z,-26.1
2022-07-25T09:38:45.768Z,-26.2
2022-07-25T09:40:47.387Z,-26
2022-07-25T09:42:49.084Z,-26.1
2022-07-25T09:44:50.347Z,-25.9
2022-07-25T09:46:51.979Z,-26
2022-07-25T09:48:53.316Z,-26
2022-07-25T09:50:54.572Z,-26.1
2022-07-25T09:52:55.627Z,-26.2
2022-07-25T09:54:56.606Z,-26.2
2022-07-25T09:56:58.201Z,-26
2022-07-25T09:58:59.485Z,-26.2
2022-07-25T10:01:00.889Z,-26.3
2022-07-25T10:03:02.206Z,-26
2022-07-25T10:05:03.581Z,-26.3
2022-07-25T10:07:04.364Z,-26.2
2022-07-25T10:09:05.388Z,-25.9
2022-07-25T10:11:06.286Z,-26.1
2022-07-25T10:13:10.429Z,-26.3
2022-07-25T10:15:08.709Z,-26.2
2022-07-25T10:17:09.827Z,-26
2022-07-25T10:19:10.787Z,-26.3
2022-07-25T10:21:24.790Z,-26.1
2022-07-25T10:23:13.739Z,-26.4
2022-07-25T10:25:15.299Z,-26.1
2022-07-25T10:27:16.517Z,-26.4
2022-07-25T10:29:17.652Z,-26
2022-07-25T10:31:19.299Z,-26.2
2022-07-25T10:33:20.040Z,-26.1
2022-07-25T10:35:21.623Z,-26.2
2022-07-25T10:37:22.943Z,-26.4
2022-07-25T10:39:24.413Z,-26.2
2022-07-25T10:41:25.509Z,-26.4
2022-07-25T10:43:26.381Z,-25.9
2022-07-25T10:45:27.463Z,-26.4
2022-07-25T10:47:28.874Z,-26.3
2022-07-25T10:49:32.031Z,-26.1
2022-07-25T10:51:30.415Z,-26.3
2022-07-25T10:55:33.059Z,-26.3
2022-07-25T10:57:34.433Z,-26.2
2022-07-25T10:59:35.923Z,-26.1
2022-07-25T11:01:37.297Z,-26.2
2022-07-25T11:03:38.373Z,-26.4
2022-07-25T11:07:40.651Z,-26
2022-07-25T11:09:41.629Z,-26.3
2022-07-25T11:11:42.946Z,-26
2022-07-25T11:13:44.416Z,-26.2
2022-07-25T11:15:45.567Z,-25.8
2022-07-25T11:17:47.145Z,-26.4
2022-07-25T11:19:48.218Z,-26.1
2022-07-25T11:21:49.444Z,-26.2
2022-07-25T11:25:52.510Z,-26.1
2022-07-25T11:29:54.245Z,-26.1
2022-07-25T11:31:55.348Z,-26.1
2022-07-25T11:33:56.229Z,-25.8
2022-07-25T11:35:57.638Z,-26
2022-07-25T11:42:00.747Z,-26.1
2022-07-25T11:46:03.405Z,-26.2
2022-07-25T11:48:04.316Z,-26
2022-07-25T11:50:05.416Z,-26.2
2022-07-25T11:52:06.230Z,-26.1
2022-07-25T11:54:07.111Z,-26.4
2022-07-25T11:56:25.677Z,-26.2
2022-07-25T11:58:09.533Z,-26.2
2022-07-25T12:00:11.163Z,-26.2
2022-07-25T12:02:12.948Z,-26.1
2022-07-25T12:04:14.300Z,-26.3
2022-07-25T12:06:15.325Z,-25.9
2022-07-25T12:08:16.293Z,-26.2
2022-07-25T12:10:17.679Z,-26
2022-07-25T12:12:18.588Z,-26
2022-07-25T12:14:19.881Z,-26.3
2022-07-25T12:16:21.513Z,-26
2022-07-25T12:18:22.888Z,-26.2
2022-07-25T12:24:25.928Z,-26.1
2022-07-25T12:26:26.849Z,-26.3
2022-07-25T12:28:28.644Z,-26.2
2022-07-25T12:30:29.767Z,-25.9
2022-07-25T12:32:30.902Z,-26.1
2022-07-25T12:38:34.859Z,-26.1
2022-07-25T12:40:36.105Z,-26.1
2022-07-25T12:42:37.193Z,-26.1
2022-07-25T12:44:38.711Z,-26.3
2022-07-25T12:46:40.259Z,-26.1
2022-07-25T12:48:41.690Z,-26
2022-07-25T12:50:42.631Z,-26.1
2022-07-25T12:52:44.008Z,-26.1
2022-07-25T12:54:45.467Z,-25.9
2022-07-25T12:56:46.945Z,-26.2
2022-07-25T12:58:48.432Z,-25.9
2022-07-25T13:00:49.415Z,-26.1
2022-07-25T13:02:51.044Z,-26
2022-07-25T13:04:51.942Z,-26.4
2022-07-25T13:06:53.285Z,-26.2
2022-07-25T13:08:54.716Z,-25.8
2022-07-25T13:10:56.262Z,-26.1
2022-07-25T13:12:57.844Z,-26.3
2022-07-25T13:14:59.608Z,-26.2
2022-07-25T13:17:44.663Z,-26.1
2022-07-25T13:21:47.037Z,-26.3
2022-07-25T13:23:48.160Z,-26.3
2022-07-25T13:25:49.188Z,-26.1
2022-07-25T13:27:50.058Z,-26.1
2022-07-25T13:29:51.014Z,-25.9
2022-07-25T13:31:52.144Z,-26.1
2022-07-25T13:33:53.879Z,-26
2022-07-25T13:35:54.707Z,-26.4
2022-07-25T13:37:55.576Z,-26
2022-07-25T13:41:57.921Z,-26.2
2022-07-25T13:43:58.619Z,65.3
2022-07-25T13:48:27.083Z,62.8
2022-07-25T13:50:03.442Z,61.7
2022-07-25T13:52:04.325Z,60.5
2022-07-25T13:54:05.829Z,61.6
2022-07-25T13:56:06.605Z,61.1
2022-07-25T13:58:08.238Z,60.1
2022-07-25T14:00:09.493Z,59
2022-07-25T14:02:10.705Z,55.7
2022-07-25T14:04:11.501Z,53.9
2022-07-25T14:06:13.181Z,51.7
2022-07-25T14:08:14.441Z,46.5
2022-07-25T14:10:15.506Z,44.7
2022-07-25T14:16:19.126Z,37.9
2022-07-25T14:18:20.505Z,34.09
2022-07-25T14:20:21.577Z,31.2
2022-07-25T14:22:22.367Z,29.8
2022-07-25T14:24:23.875Z,28.2
2022-07-25T14:26:25.576Z,28.1
2022-07-25T14:28:26.316Z,24.6
2022-07-25T14:30:27.242Z,22.9
2022-07-25T14:32:28.083Z,21.7
2022-07-25T14:34:29.508Z,20.8
2022-07-25T14:36:30.250Z,17.79
2022-07-25T14:38:31.284Z,16.6
2022-07-25T14:40:32.861Z,15.6
2022-07-25T14:42:34.281Z,14.3
2022-07-25T14:44:35.335Z,12.6
2022-07-25T14:46:36.186Z,12.6
2022-07-25T14:48:36.969Z,11.9
2022-07-25T14:52:38.915Z,10.8
2022-07-25T14:56:40.850Z,9.7
2022-07-25T14:58:42.169Z,8.3
2022-07-25T15:00:43.153Z,-26.3
2022-07-25T15:02:44.378Z,-26.2
2022-07-25T15:04:45.805Z,-26
2022-07-25T15:06:47.417Z,-26
2022-07-25T15:08:49.005Z,-26
2022-07-25T15:13:02.285Z,-26.3
2022-07-25T15:14:52.226Z,-26
2022-07-25T15:19:14.954Z,-26
2022-07-25T15:20:55.865Z,-26.3
2022-07-25T15:22:57.151Z,-26
2022-07-25T15:25:27.445Z,-26.2
2022-07-25T15:26:58.856Z,-26
2022-07-25T15:28:59.934Z,-26
2022-07-25T15:31:00.877Z,-26
2022-07-25T15:33:02.040Z,-26.2
2022-07-25T15:35:03.787Z,-26
2022-07-25T15:37:04.866Z,-25.9
2022-07-25T15:39:06.812Z,-26.4
2022-07-25T15:41:07.836Z,-26.5
2022-07-25T15:43:09.433Z,-25.9
2022-07-25T15:45:31.167Z,-26.1
2022-07-25T15:49:12.955Z,-26.4
2022-07-25T15:51:14.484Z,-26.1
2022-07-25T15:53:15.557Z,-26.1
2022-07-25T15:55:17.208Z,-26.1
2022-07-25T15:57:18.539Z,-26.2
2022-07-25T15:59:19.799Z,-25.9
2022-07-25T16:01:21.488Z,-26.1
2022-07-25T16:03:22.293Z,-25.9
2022-07-25T16:05:23.888Z,-26.1
2022-07-25T16:07:25.002Z,-26.3
2022-07-25T16:13:29.345Z,-26.2
2022-07-25T16:15:30.425Z,-26.2
2022-07-25T16:17:31.392Z,-26.1
2022-07-25T16:19:32.393Z,-26.1
2022-07-25T16:21:33.868Z,-26.1
2022-07-25T16:23:39.048Z,-26.2
2022-07-25T16:25:36.198Z,-26.1
2022-07-25T16:27:37.160Z,-26.2
2022-07-25T16:29:38.267Z,-26.2
2022-07-25T16:31:39.306Z,-25.9
2022-07-25T16:33:40.109Z,-26.2
2022-07-25T16:35:41.480Z,-26.1
2022-07-25T16:37:43.045Z,-26.2
2022-07-25T16:39:44.472Z,-26.1
2022-07-25T16:41:45.440Z,-26
2022-07-25T16:43:46.547Z,-26.4
2022-07-25T16:45:47.654Z,-26.1
2022-07-25T16:47:48.767Z,-26
2022-07-25T16:49:49.996Z,-26
2022-07-25T16:53:52.778Z,-26.1
2022-07-25T16:55:53.655Z,-26.4
2022-07-25T16:57:55.108Z,-26.3
2022-07-25T16:59:56.289Z,-26.2
2022-07-25T17:01:57.762Z,-26.2
2022-07-25T17:03:58.919Z,-26.3
2022-07-25T17:05:59.745Z,-26.2
2022-07-25T17:08:00.853Z,-26.3
2022-07-25T17:10:02.522Z,-26.2
2022-07-25T17:12:03.755Z,-26
2022-07-25T17:14:05.136Z,-26.4
2022-07-25T17:16:06.511Z,-26.3
2022-07-25T17:18:07.974Z,-25.9
2022-07-25T17:20:09.363Z,-26.3
2022-07-25T17:22:10.557Z,-26.1
2022-07-25T17:24:12.054Z,-26
2022-07-25T17:26:13.050Z,-26.1
2022-07-25T17:28:14.360Z,-26.2
2022-07-25T17:30:15.637Z,-26.1
2022-07-25T17:32:17.298Z,-26.2
2022-07-25T17:34:18.832Z,-26.1
2022-07-25T17:36:20.223Z,-26.2
2022-07-25T17:38:25.933Z,-26.1
2022-07-25T17:40:23.177Z,-26.2
2022-07-25T17:42:24.625Z,-25.9
2022-07-25T17:44:26.172Z,-26.2
2022-07-25T17:46:27.328Z,-25.9
2022-07-25T17:48:29.120Z,-26.1
2022-07-25T17:54:33.004Z,-26.2
2022-07-25T17:56:34.619Z,-26.2
2022-07-25T17:58:35.479Z,-26
2022-07-25T18:00:36.433Z,-25.8
2022-07-25T18:02:37.287Z,-26.5
2022-07-25T18:04:38.892Z,-26.3
2022-07-25T18:08:41.945Z,-26.1
2022-07-25T18:10:43.514Z,-26.1
2022-07-25T18:12:44.698Z,-26.1
2022-07-25T18:14:46.281Z,-26.2
2022-07-25T18:16:47.532Z,-26.3
2022-07-25T18:18:49.184Z,-26
2022-07-25T18:20:50.180Z,-26.2
2022-07-25T18:22:51.331Z,-26.2
2022-07-25T18:24:52.240Z,-26.4
2022-07-25T18:26:53.979Z,-26.2
2022-07-25T18:28:54.844Z,-26.3
2022-07-25T18:30:56.377Z,-26
2022-07-25T18:32:57.914Z,-25.9
2022-07-25T18:34:59.613Z,-26.2
2022-07-25T18:37:00.560Z,-26
2022-07-25T18:39:01.908Z,-26.1
2022-07-25T18:41:26.746Z,-26.3
2022-07-25T18:43:04.259Z,-26
2022-07-25T18:45:05.634Z,-26.2
2022-07-25T18:47:06.893Z,-26.2
2022-07-25T18:49:08.586Z,-26.1
2022-07-25T18:51:09.514Z,-26.2
2022-07-25T18:53:11.099Z,-25.9
2022-07-25T18:55:12.206Z,-26.1
2022-07-25T18:57:13.862Z,-26.1
2022-07-25T18:59:14.755Z,-26.3
2022-07-25T19:01:16.553Z,-26.1
2022-07-25T19:03:17.473Z,-26.1
2022-07-25T19:05:18.558Z,-26.2
2022-07-25T19:07:20.217Z,-26.2
2022-07-25T19:09:21.897Z,-25.9
2022-07-25T19:11:23.169Z,-26
2022-07-25T19:13:47.013Z,-26.1
2022-07-25T19:15:25.846Z,-26.4
2022-07-25T19:19:28.269Z,-26.5
2022-07-25T19:21:30.053Z,-26.3
2022-07-25T19:23:31.309Z,-26.1
2022-07-25T19:25:32.248Z,-25.9
2022-07-25T19:27:33.909Z,-26.3
2022-07-25T19:29:35.496Z,-26.1
2022-07-25T19:35:39.981Z,-26.1
2022-07-25T19:37:41.747Z,-26.5
2022-07-25T19:39:43.266Z,-26.2
2022-07-25T19:41:46.822Z,-26.4
2022-07-25T19:43:46.190Z,-26.2
2022-07-25T19:45:47.105Z,-26.4
2022-07-25T19:47:48.114Z,-26.3
2022-07-25T19:49:48.992Z,-26.3
2022-07-25T19:51:50.057Z,-26.2
2022-07-25T19:55:53.455Z,-26.3
2022-07-25T19:57:54.652Z,-26.3
2022-07-25T19:59:56.105Z,-26.1
2022-07-25T20:00:39.782Z,-26.2
2022-07-25T20:02:41.514Z,-26.1
2022-07-25T20:04:43.025Z,-26.2
2022-07-25T20:06:44.069Z,-26.2
2022-07-25T20:10:46.975Z,-26
2022-07-25T20:12:48.110Z,-26.3
2022-07-25T20:14:49.777Z,-26.1
2022-07-25T20:16:50.584Z,-26.3
2022-07-25T20:20:53.191Z,-26.2
2022-07-25T20:22:54.931Z,-26.4
2022-07-25T20:24:56.722Z,-26.3
2022-07-25T20:26:58.449Z,-26.4
2022-07-25T20:28:59.440Z,-26.3
2022-07-25T20:31:00.626Z,-26
2022-07-25T20:35:03.041Z,-26.2
2022-07-25T20:37:03.923Z,-26.1
2022-07-25T20:39:05.824Z,-26.4
2022-07-25T20:41:07.168Z,-26.2
2022-07-25T20:43:08.256Z,-26.4
2022-07-25T20:45:09.233Z,-26.4
2022-07-25T20:47:10.342Z,-26.4
2022-07-25T20:49:12.025Z,-26.3
2022-07-25T20:55:15.227Z,-26.2
2022-07-25T20:57:16.647Z,-26.6
2022-07-25T20:59:17.900Z,-26.2
2022-07-25T21:01:19.408Z,-26
2022-07-25T21:03:21.036Z,-26.6
2022-07-25T21:05:22.426Z,-26.7
2022-07-25T21:07:24.239Z,-26.3
2022-07-25T21:09:28.447Z,-26.3
2022-07-25T21:11:27.036Z,-26.3
2022-07-25T21:13:30.710Z,-26.1
2022-07-25T21:15:29.518Z,-26
2022-07-25T21:17:30.820Z,-26.2
2022-07-25T21:19:32.527Z,-26.6
2022-07-25T21:21:33.611Z,-26.3
2022-07-25T21:23:34.881Z,-26.3
2022-07-25T21:25:35.752Z,-26
2022-07-25T21:27:36.965Z,-26
2022-07-25T21:29:37.931Z,-26.3
2022-07-25T21:31:39.564Z,-26.3
2022-07-25T21:33:40.526Z,-26.3
2022-07-25T21:37:42.407Z,-26.1
2022-07-25T21:41:44.916Z,-26.6
2022-07-25T21:43:46.763Z,-26
2022-07-25T21:45:48.036Z,-26
2022-07-25T21:47:49.087Z,-26.2
2022-07-25T21:51:51.682Z,-26.1
2022-07-25T21:53:52.758Z,-26.6
2022-07-25T21:55:53.613Z,-26.2
2022-07-25T21:57:55.286Z,-26.1
2022-07-25T21:59:56.511Z,-26
2022-07-25T22:01:58.153Z,-26.4
2022-07-25T22:03:59.384Z,-26.3
2022-07-25T22:06:00.503Z,-26.2
2022-07-25T22:08:01.915Z,-26.1
2022-07-25T22:10:03.718Z,-26.3
2022-07-25T22:12:04.993Z,-25.9
2022-07-25T22:14:06.504Z,-26.3
2022-07-25T22:16:07.568Z,-26.1
2022-07-25T22:18:09.218Z,-26.2
2022-07-25T22:20:10.798Z,-26.1
2022-07-25T22:24:13.475Z,-26.1
2022-07-25T22:26:15.333Z,-26.1
2022-07-25T22:28:16.815Z,-26.2
2022-07-25T22:30:19.318Z,-26.2
2022-07-25T22:36:23.481Z,-26.1
2022-07-25T22:38:25.206Z,-26.3
2022-07-25T22:40:26.537Z,-26.3
2022-07-25T22:42:27.597Z,-26.3
2022-07-25T22:44:28.654Z,-26.4
2022-07-25T22:46:30.226Z,-26.5
2022-07-25T22:48:31.159Z,-26.3
2022-07-25T22:50:32.345Z,-26.2
2022-07-25T22:52:34.136Z,-26.2
2022-07-25T22:54:35.469Z,-25.9
2022-07-25T22:56:36.896Z,-26.3
2022-07-25T22:58:37.882Z,-26.2
2022-07-25T23:00:39.259Z,-26.3
2022-07-25T23:02:40.533Z,-26.3
2022-07-25T23:04:41.636Z,-26.1
2022-07-25T23:06:42.720Z,-26.3
2022-07-25T23:08:43.749Z,-26.5
2022-07-25T23:12:47.313Z,-26.3
2022-07-25T23:14:48.206Z,-26.3
2022-07-25T23:16:49.568Z,-26.5
2022-07-25T23:18:50.642Z,-26
2022-07-25T23:22:52.555Z,-26.3
2022-07-25T23:24:53.625Z,-26.5
2022-07-25T23:26:55.200Z,-26
2022-07-25T23:28:56.430Z,-26.3
2022-07-25T23:32:59.328Z,-26.4
2022-07-25T23:35:00.826Z,-26.4
2022-07-25T23:37:02.256Z,-26.2
2022-07-25T23:39:03.875Z,-26.1
2022-07-25T23:41:05.583Z,-26.3
2022-07-25T23:43:07.271Z,-26.2
2022-07-25T23:45:08.834Z,-26.6
2022-07-25T23:49:12.078Z,-26.2
2022-07-25T23:51:13.335Z,-26.3
2022-07-25T23:53:14.985Z,-26.2
2022-07-25T23:55:15.966Z,-26.1
